Time;durP1;ratioP1;P1;durP2;ratioP2;P2;SDS_P1;SDS_P2;PMS_P1;PMS_P2;Temp;Humidity;BMP_temperature;BMP_pressure;BME280_temperature;BME280_humidity;BME280_pressure;Samples;Min_cycle;Max_cycle;Signal;HPM_P1;HPM_P2
2022/10/20 00:01:22;;;;;;;16.67;10.85;;;12.60;99.90;;;;;;5095548;28;20629;-67
2022/10/20 00:03:49;;;;;;;18.10;10.15;;;12.80;99.90;;;;;;5088165;28;20272;-67
2022/10/20 00:06:24;;;;;;;16.65;11.10;;;12.80;99.90;;;;;;5091731;28;20234;-67
2022/10/20 00:08:50;;;;;;;15.52;10.13;;;12.90;99.90;;;;;;5087961;28;20184;-67
2022/10/20 00:11:17;;;;;;;18.30;8.93;;;12.90;99.90;;;;;;5089991;28;20208;-67
2022/10/20 00:13:45;;;;;;;14.48;10.00;;;12.80;99.90;;;;;;5089259;28;20554;-67
2022/10/20 00:16:11;;;;;;;17.15;10.77;;;12.80;99.90;;;;;;5102160;28;20212;-67
2022/10/20 00:18:37;;;;;;;18.38;10.48;;;12.80;99.90;;;;;;5101902;28;20191;-67
2022/10/20 00:21:12;;;;;;;19.60;11.52;;;12.60;99.90;;;;;;5087960;28;20241;-67
2022/10/20 00:23:38;;;;;;;18.55;11.32;;;12.60;99.90;;;;;;5103898;28;20184;-68
2022/10/20 00:26:06;;;;;;;18.67;11.70;;;12.50;99.90;;;;;;5091549;28;20687;-67
2022/10/20 00:28:33;;;;;;;15.00;10.32;;;12.30;99.90;;;;;;5090142;28;20735;-67
2022/10/20 00:30:59;;;;;;;19.27;11.55;;;12.30;99.90;;;;;;5088229;28;20184;-67
2022/10/20 00:33:25;;;;;;;17.92;10.43;;;12.50;99.90;;;;;;5091904;28;20646;-67
2022/10/20 00:35:51;;;;;;;23.20;11.07;;;12.50;99.90;;;;;;5094492;28;20274;-67
2022/10/20 00:38:17;;;;;;;18.33;11.70;;;12.50;99.90;;;;;;5109392;27;20224;-67
2022/10/20 00:40:42;;;;;;;19.20;11.90;;;12.50;99.90;;;;;;5105035;28;20378;-67
2022/10/20 00:43:15;;;;;;;17.25;10.57;;;12.50;99.90;;;;;;5104830;28;20192;-67
2022/10/20 00:45:43;;;;;;;19.52;11.07;;;12.60;99.90;;;;;;5103331;28;20187;-66
2022/10/20 00:48:15;;;;;;;17.70;11.13;;;12.60;99.90;;;;;;5088741;28;20615;-69
2022/10/20 00:50:48;;;;;;;25.45;12.65;;;12.50;99.90;;;;;;5087347;28;20208;-67
2022/10/20 00:53:15;;;;;;;20.88;11.77;;;12.60;99.90;;;;;;5102336;28;20184;-67
2022/10/20 00:55:42;;;;;;;18.77;10.57;;;12.60;99.90;;;;;;5090523;28;20232;-66
2022/10/20 00:58:08;;;;;;;15.68;10.65;;;12.60;99.90;;;;;;5089533;28;20188;-67
2022/10/20 01:00:37;;;;;;;17.05;10.55;;;12.60;99.90;;;;;;5093286;28;20210;-67
2022/10/20 01:03:05;;;;;;;23.90;12.65;;;12.70;99.90;;;;;;5107911;28;20588;-67
2022/10/20 01:05:30;;;;;;;16.67;11.05;;;12.80;99.90;;;;;;5091122;28;20180;-66
2022/10/20 01:07:56;;;;;;;20.77;12.95;;;12.60;99.90;;;;;;5089496;28;20238;-67
2022/10/20 01:10:28;;;;;;;19.75;10.68;;;12.60;99.90;;;;;;5098774;28;20563;-66
2022/10/20 01:12:53;;;;;;;21.80;12.02;;;12.70;99.90;;;;;;5107654;28;20179;-67
2022/10/20 01:15:44;;;;;;;19.45;12.43;;;12.80;99.90;;;;;;5095481;28;20227;-65
2022/10/20 01:18:18;;;;;;;22.77;11.88;;;12.70;99.90;;;;;;5089639;28;20177;-67
2022/10/20 01:20:49;;;;;;;22.90;12.85;;;12.50;99.90;;;;;;5099401;28;20245;-67
2022/10/20 01:23:42;;;;;;;20.70;11.68;;;12.50;99.90;;;;;;5090872;28;20184;-67
2022/10/20 01:26:26;;;;;;;18.35;11.60;;;12.50;99.90;;;;;;5100326;28;20183;-67
2022/10/20 01:29:14;;;;;;;19.05;11.45;;;12.30;99.90;;;;;;5099252;28;20242;-67
2022/10/20 01:31:56;;;;;;;18.80;11.95;;;12.30;99.90;;;;;;5094909;28;20180;-67
2022/10/20 01:34:31;;;;;;;17.27;12.10;;;12.40;99.90;;;;;;5097418;28;20192;-67
2022/10/20 01:37:02;;;;;;;20.10;11.07;;;12.40;99.90;;;;;;5100589;28;20632;-67
2022/10/20 01:39:58;;;;;;;21.80;11.60;;;12.40;99.90;;;;;;5092113;28;20181;-67
2022/10/20 01:42:25;;;;;;;25.35;12.13;;;12.50;99.90;;;;;;5092355;28;20208;-67
2022/10/20 01:44:55;;;;;;;20.17;11.65;;;12.50;99.90;;;;;;5095213;28;20205;-67
2022/10/20 01:47:25;;;;;;;22.20;11.65;;;12.60;99.90;;;;;;5093849;28;20261;-67
2022/10/20 01:49:52;;;;;;;19.77;12.02;;;12.70;99.90;;;;;;5098119;28;20200;-67
2022/10/20 01:52:18;;;;;;;21.85;12.65;;;12.70;99.90;;;;;;5096310;28;20271;-67
2022/10/20 01:54:43;;;;;;;21.90;12.48;;;12.50;99.90;;;;;;5099109;28;20240;-67
2022/10/20 01:57:28;;;;;;;18.33;11.13;;;12.50;99.90;;;;;;5117652;27;20637;-67
2022/10/20 02:00:00;;;;;;;16.23;9.82;;;12.60;99.90;;;;;;5105405;28;20172;-67
2022/10/20 02:02:47;;;;;;;19.35;11.10;;;12.50;99.90;;;;;;5096028;28;20184;-67
2022/10/20 02:06:03;;;;;;;18.42;10.93;;;12.70;99.90;;;;;;5103497;28;20628;-67
2022/10/20 02:08:57;;;;;;;19.33;11.70;;;12.60;99.90;;;;;;5039238;28;20269;-67
2022/10/20 02:11:49;;;;;;;18.33;10.73;;;12.70;99.90;;;;;;5101774;28;20216;-67
2022/10/20 02:14:17;;;;;;;22.65;11.38;;;12.70;99.90;;;;;;5101696;28;20184;-67
2022/10/20 02:16:48;;;;;;;21.08;12.15;;;12.70;99.90;;;;;;5102155;28;20631;-67
2022/10/20 02:19:16;;;;;;;19.98;11.55;;;12.60;99.90;;;;;;5097349;28;20180;-67
2022/10/20 02:21:42;;;;;;;19.98;11.85;;;12.70;99.90;;;;;;5095042;28;20260;-67
2022/10/20 02:24:08;;;;;;;21.00;11.52;;;12.70;99.90;;;;;;5104049;28;20267;-67
2022/10/20 02:26:37;;;;;;;22.55;12.60;;;12.70;99.90;;;;;;5103604;28;20245;-67
2022/10/20 02:29:18;;;;;;;21.52;11.85;;;12.60;99.90;;;;;;5095425;28;20180;-67
2022/10/20 02:31:45;;;;;;;28.67;11.32;;;12.70;99.90;;;;;;5095223;28;20168;-67
2022/10/20 02:34:11;;;;;;;23.30;13.50;;;12.60;99.90;;;;;;5094073;28;20204;-67
2022/10/20 02:36:39;;;;;;;26.52;12.50;;;12.60;99.90;;;;;;5095822;28;20584;-67
2022/10/20 02:39:06;;;;;;;15.30;9.60;;;12.70;99.90;;;;;;5098527;28;20705;-67
2022/10/20 02:41:32;;;;;;;22.45;12.18;;;12.60;99.90;;;;;;5097009;28;20189;-67
2022/10/20 02:43:57;;;;;;;21.80;12.93;;;12.70;99.90;;;;;;5105234;28;20271;-67
2022/10/20 02:46:23;;;;;;;23.17;11.90;;;12.90;99.90;;;;;;5102699;28;20271;-67
2022/10/20 02:48:49;;;;;;;17.15;11.35;;;12.70;99.90;;;;;;5095388;28;20204;-67
2022/10/20 02:51:16;;;;;;;19.98;11.65;;;12.60;99.90;;;;;;5094096;28;20549;-67
2022/10/20 02:53:42;;;;;;;22.17;11.90;;;12.70;99.90;;;;;;5097067;28;20583;-67
2022/10/20 02:56:08;;;;;;;21.90;12.15;;;12.70;99.90;;;;;;5103609;28;20567;-67
2022/10/20 02:58:33;;;;;;;17.38;11.00;;;12.70;99.90;;;;;;5109326;28;20267;-67
2022/10/20 03:00:59;;;;;;;18.52;10.57;;;12.60;99.90;;;;;;5104194;28;20180;-68
2022/10/20 03:03:25;;;;;;;18.38;10.57;;;12.60;99.90;;;;;;5112191;28;20648;-67
2022/10/20 03:05:50;;;;;;;19.02;10.82;;;12.60;99.90;;;;;;5097769;28;20583;-67
2022/10/20 03:08:16;;;;;;;19.48;10.60;;;12.50;99.90;;;;;;5100636;28;20177;-67
2022/10/20 03:10:42;;;;;;;23.67;12.00;;;12.50;99.90;;;;;;5093635;28;20561;-67
2022/10/20 03:13:09;;;;;;;18.60;12.18;;;12.60;99.90;;;;;;5098619;28;20184;-67
2022/10/20 03:15:35;;;;;;;21.25;11.15;;;12.60;99.90;;;;;;5093091;28;20259;-68
2022/10/20 03:18:00;;;;;;;19.02;10.88;;;12.60;99.90;;;;;;5104094;28;20181;-67
2022/10/20 03:20:26;;;;;;;15.52;9.82;;;12.60;99.90;;;;;;5094308;28;20187;-67
2022/10/20 03:22:52;;;;;;;18.85;10.13;;;12.70;99.90;;;;;;5100370;28;20184;-67
2022/10/20 03:25:17;;;;;;;23.23;11.02;;;12.60;99.90;;;;;;5093006;28;20569;-67
2022/10/20 03:27:43;;;;;;;18.77;11.32;;;12.50;99.90;;;;;;5092917;28;20188;-67
2022/10/20 03:30:09;;;;;;;18.40;11.30;;;12.60;99.90;;;;;;5084956;28;20268;-67
2022/10/20 03:32:34;;;;;;;20.35;10.50;;;12.40;99.90;;;;;;5106525;28;20271;-67
2022/10/20 03:35:00;;;;;;;17.80;10.93;;;12.30;99.90;;;;;;5093679;28;20296;-67
2022/10/20 03:37:26;;;;;;;17.80;11.35;;;12.40;99.90;;;;;;5092862;28;20249;-67
2022/10/20 03:39:51;;;;;;;17.25;10.00;;;12.40;99.90;;;;;;5100415;28;20185;-67
2022/10/20 03:42:17;;;;;;;17.75;10.32;;;12.50;99.90;;;;;;5092980;28;20184;-68
2022/10/20 03:44:45;;;;;;;16.23;9.75;;;12.40;99.90;;;;;;5112053;28;20223;-67
2022/10/20 03:47:12;;;;;;;19.23;10.88;;;12.30;99.90;;;;;;5114146;27;20176;-67
2022/10/20 03:49:38;;;;;;;17.63;9.45;;;12.40;99.90;;;;;;5102732;28;20219;-67
2022/10/20 03:52:04;;;;;;;17.15;10.05;;;12.30;99.90;;;;;;5092276;28;20219;-67
2022/10/20 03:54:30;;;;;;;17.98;10.07;;;12.30;99.90;;;;;;5100253;28;20213;-67
2022/10/20 03:56:55;;;;;;;16.17;10.35;;;12.20;99.90;;;;;;5106237;28;20195;-67
2022/10/20 03:59:21;;;;;;;14.55;10.35;;;12.20;99.90;;;;;;5092218;28;20181;-67
2022/10/20 04:01:47;;;;;;;16.23;9.93;;;12.20;99.90;;;;;;5092629;28;20191;-67
2022/10/20 04:04:13;;;;;;;17.27;9.85;;;12.20;99.90;;;;;;5094302;28;20281;-67
2022/10/20 04:06:38;;;;;;;15.30;9.32;;;12.30;99.90;;;;;;5095683;28;20620;-67
2022/10/20 04:09:04;;;;;;;16.35;10.52;;;12.40;99.90;;;;;;5101015;28;20269;-67
2022/10/20 04:11:31;;;;;;;19.00;10.40;;;12.40;99.90;;;;;;5111204;28;20207;-67
2022/10/20 04:13:57;;;;;;;18.50;10.95;;;12.30;99.90;;;;;;5102580;28;20187;-67
2022/10/20 04:16:23;;;;;;;15.65;10.23;;;12.10;99.90;;;;;;5112144;28;20212;-69
2022/10/20 04:18:50;;;;;;;15.48;9.80;;;12.10;99.90;;;;;;5092819;28;20176;-67
2022/10/20 04:21:16;;;;;;;18.08;11.15;;;12.20;99.90;;;;;;5092395;28;20180;-67
2022/10/20 04:23:41;;;;;;;16.95;10.85;;;12.10;99.90;;;;;;5093156;28;20517;-67
2022/10/20 04:26:12;;;;;;;19.13;10.95;;;12.00;99.90;;;;;;5092890;28;20202;-67
2022/10/20 04:28:38;;;;;;;20.90;11.52;;;12.10;99.90;;;;;;5102653;28;20184;-66
2022/10/20 04:31:04;;;;;;;20.30;11.45;;;12.00;99.90;;;;;;5110140;28;20671;-67
2022/10/20 04:33:30;;;;;;;14.63;9.45;;;12.20;99.90;;;;;;5113512;27;20187;-66
2022/10/20 04:36:06;;;;;;;20.02;10.90;;;12.20;99.90;;;;;;5100019;28;20265;-67
2022/10/20 04:38:33;;;;;;;19.65;10.75;;;12.20;99.90;;;;;;5091373;28;20183;-67
2022/10/20 04:41:00;;;;;;;16.02;11.07;;;12.20;99.90;;;;;;5102207;28;20276;-67
2022/10/20 04:43:26;;;;;;;18.40;10.27;;;12.10;99.90;;;;;;5093682;28;20183;-67
2022/10/20 04:45:57;;;;;;;19.38;10.80;;;12.20;99.90;;;;;;5104204;28;20185;-67
2022/10/20 04:48:23;;;;;;;20.20;11.35;;;12.20;99.90;;;;;;5092873;28;20185;-67
2022/10/20 04:50:59;;;;;;;17.10;10.27;;;12.10;99.90;;;;;;5103360;28;20200;-67
2022/10/20 04:53:25;;;;;;;22.50;10.75;;;12.10;99.90;;;;;;5091689;28;20275;-67
2022/10/20 04:55:55;;;;;;;17.40;10.40;;;12.00;99.90;;;;;;5100951;28;20300;-67
2022/10/20 04:58:21;;;;;;;19.40;11.18;;;12.00;99.90;;;;;;5093678;28;20184;-68
2022/10/20 05:00:47;;;;;;;22.25;11.60;;;12.00;99.90;;;;;;5094561;28;20177;-68
2022/10/20 05:03:13;;;;;;;20.23;10.48;;;12.10;99.90;;;;;;5093420;28;20272;-67
2022/10/20 05:05:39;;;;;;;22.15;12.18;;;12.10;99.90;;;;;;5104450;28;20212;-67
2022/10/20 05:08:04;;;;;;;19.92;11.55;;;12.10;99.90;;;;;;5100405;28;20267;-68
2022/10/20 05:10:30;;;;;;;18.92;11.57;;;12.00;99.90;;;;;;5092166;28;20204;-68
2022/10/20 05:12:55;;;;;;;25.95;11.25;;;12.00;99.90;;;;;;5093624;28;20214;-68
2022/10/20 05:15:21;;;;;;;16.27;10.88;;;12.10;99.90;;;;;;5091409;28;20246;-68
2022/10/20 05:17:47;;;;;;;20.95;10.20;;;12.20;99.90;;;;;;5107804;27;20664;-67
2022/10/20 05:20:12;;;;;;;20.15;11.15;;;12.20;99.90;;;;;;5091676;28;20193;-68
2022/10/20 05:22:38;;;;;;;17.13;11.23;;;12.20;99.90;;;;;;5104718;28;20180;-67
2022/10/20 05:25:04;;;;;;;18.23;10.63;;;12.30;99.90;;;;;;5108564;27;20201;-68
2022/10/20 05:27:30;;;;;;;26.77;11.60;;;12.40;99.90;;;;;;5102972;28;20177;-68
2022/10/20 05:29:55;;;;;;;20.80;12.30;;;12.40;99.90;;;;;;5109753;28;20203;-68
2022/10/20 05:32:21;;;;;;;17.52;11.30;;;12.50;99.90;;;;;;5095227;28;20223;-68
2022/10/20 05:34:47;;;;;;;18.25;11.00;;;12.40;99.90;;;;;;5106278;28;20635;-67
2022/10/20 05:37:12;;;;;;;18.35;11.00;;;12.20;99.90;;;;;;5102736;28;20265;-68
2022/10/20 05:39:38;;;;;;;16.42;10.82;;;12.30;99.90;;;;;;5096031;28;20706;-68
2022/10/20 05:42:03;;;;;;;19.80;11.05;;;12.30;99.90;;;;;;5111482;28;20195;-68
2022/10/20 05:44:29;;;;;;;20.67;10.30;;;12.30;99.90;;;;;;5106360;27;20630;-67
2022/10/20 05:46:55;;;;;;;19.08;11.98;;;12.40;99.90;;;;;;5098637;28;20630;-68
2022/10/20 05:49:22;;;;;;;17.13;10.60;;;12.50;99.90;;;;;;5096047;28;20185;-67
2022/10/20 05:51:48;;;;;;;18.90;10.32;;;12.60;99.90;;;;;;5097003;28;20184;-67
2022/10/20 05:54:14;;;;;;;18.63;11.20;;;12.70;99.90;;;;;;5098461;28;20184;-67
2022/10/20 05:56:40;;;;;;;19.98;11.75;;;12.80;99.90;;;;;;5096744;28;20196;-67
2022/10/20 05:59:05;;;;;;;19.30;10.27;;;12.90;99.90;;;;;;5100302;28;20180;-66
2022/10/20 06:01:47;;;;;;;18.83;11.15;;;12.90;99.90;;;;;;5104893;28;20192;-66
2022/10/20 06:04:15;;;;;;;19.65;11.80;;;13.00;99.90;;;;;;5096012;28;20267;-67
2022/10/20 06:06:41;;;;;;;14.02;10.52;;;12.90;99.90;;;;;;5099008;28;20571;-67
2022/10/20 06:09:08;;;;;;;19.15;11.95;;;13.00;99.90;;;;;;5105798;28;20234;-67
2022/10/20 06:11:34;;;;;;;17.73;10.77;;;12.90;99.90;;;;;;5100924;28;20292;-67
2022/10/20 06:14:00;;;;;;;19.05;9.70;;;12.80;99.90;;;;;;5097753;28;20185;-66
2022/10/20 06:16:26;;;;;;;16.77;10.38;;;12.80;99.90;;;;;;5109085;28;20580;-66
2022/10/20 06:18:52;;;;;;;14.30;10.20;;;12.80;99.90;;;;;;5112489;28;20308;-69
2022/10/20 06:21:24;;;;;;;17.88;10.98;;;12.90;99.90;;;;;;5108799;28;20191;-67
2022/10/20 06:23:50;;;;;;;18.35;10.20;;;12.90;99.90;;;;;;5107323;28;20195;-70
2022/10/20 06:26:19;;;;;;;18.38;11.70;;;12.90;99.90;;;;;;5101885;28;20183;-67
2022/10/20 06:28:47;;;;;;;16.85;10.38;;;12.80;99.90;;;;;;5101139;28;20193;-67
2022/10/20 06:31:15;;;;;;;17.17;10.75;;;12.80;99.90;;;;;;5113308;27;20629;-67
2022/10/20 06:33:42;;;;;;;19.23;10.48;;;12.80;99.90;;;;;;5109944;27;20184;-65
2022/10/20 06:36:08;;;;;;;19.25;10.65;;;12.90;99.90;;;;;;5107749;28;20273;-69
2022/10/20 06:38:34;;;;;;;15.00;9.57;;;13.00;99.90;;;;;;5103905;28;20181;-66
2022/10/20 06:41:01;;;;;;;15.05;9.55;;;13.20;99.90;;;;;;5095637;28;20193;-69
2022/10/20 06:43:27;;;;;;;21.55;10.88;;;13.10;99.90;;;;;;5097110;28;20226;-68
2022/10/20 06:45:57;;;;;;;17.75;9.57;;;13.10;99.90;;;;;;5098730;28;20185;-67
2022/10/20 06:48:23;;;;;;;15.82;10.50;;;13.30;99.90;;;;;;5094011;28;20653;-67
2022/10/20 06:50:49;;;;;;;17.90;10.15;;;13.20;99.90;;;;;;5094025;28;20196;-68
2022/10/20 06:53:14;;;;;;;19.48;11.55;;;13.30;99.90;;;;;;5094359;28;20180;-68
2022/10/20 06:55:40;;;;;;;17.48;10.05;;;13.30;99.90;;;;;;5097079;28;20217;-68
2022/10/20 06:58:06;;;;;;;15.52;10.18;;;13.30;99.90;;;;;;5094301;28;20219;-69
2022/10/20 07:00:31;;;;;;;20.38;11.35;;;13.30;99.90;;;;;;5094862;28;20673;-67
2022/10/20 07:02:57;;;;;;;16.95;10.88;;;13.20;99.90;;;;;;5093418;28;20188;-67
2022/10/20 07:05:23;;;;;;;20.67;10.93;;;13.20;99.90;;;;;;5094052;28;20208;-66
2022/10/20 07:07:52;;;;;;;17.65;9.60;;;13.30;99.90;;;;;;5103860;28;20214;-66
2022/10/20 07:10:17;;;;;;;19.67;10.50;;;13.30;99.90;;;;;;5107614;28;20331;-65
2022/10/20 07:12:43;;;;;;;15.73;8.77;;;13.40;99.90;;;;;;5111412;28;20215;-65
2022/10/20 07:15:09;;;;;;;15.00;10.30;;;13.40;99.90;;;;;;5104348;28;20299;-65
2022/10/20 07:17:35;;;;;;;19.13;9.48;;;13.40;99.90;;;;;;5092799;28;20181;-67
2022/10/20 07:20:00;;;;;;;15.60;10.40;;;13.40;99.90;;;;;;5101677;28;20180;-66
2022/10/20 07:22:26;;;;;;;14.48;9.48;;;13.40;99.90;;;;;;5099498;28;20184;-66
2022/10/20 07:24:52;;;;;;;17.08;10.60;;;13.50;99.90;;;;;;5098185;28;20189;-68
2022/10/20 07:27:21;;;;;;;15.35;10.20;;;13.50;99.90;;;;;;5093424;28;20714;-66
2022/10/20 07:29:47;;;;;;;15.50;10.52;;;13.40;99.90;;;;;;5107534;28;20180;-67
2022/10/20 07:32:12;;;;;;;15.88;10.00;;;13.40;99.90;;;;;;5094567;28;20746;-67
2022/10/20 07:34:38;;;;;;;15.52;10.20;;;13.50;99.90;;;;;;5093731;28;20238;-66
2022/10/20 07:37:03;;;;;;;15.43;9.73;;;13.60;99.90;;;;;;5092676;28;20609;-67
2022/10/20 07:39:29;;;;;;;14.90;9.60;;;13.70;99.90;;;;;;5094202;28;20215;-69
2022/10/20 07:41:55;;;;;;;14.77;9.63;;;13.80;99.90;;;;;;5094060;28;20526;-70
2022/10/20 07:44:21;;;;;;;14.32;10.48;;;13.90;99.90;;;;;;5094198;28;20546;-66
2022/10/20 07:46:47;;;;;;;11.90;9.15;;;13.90;99.90;;;;;;5092468;28;20271;-66
2022/10/20 07:49:12;;;;;;;16.42;10.10;;;14.10;99.90;;;;;;5094645;28;20709;-71
2022/10/20 07:51:38;;;;;;;14.40;9.02;;;14.10;99.90;;;;;;5094370;28;20187;-68
2022/10/20 07:54:06;;;;;;;14.35;8.80;;;14.50;99.90;;;;;;5098661;28;20555;-67
2022/10/20 07:56:38;;;;;;;16.77;8.98;;;14.80;99.90;;;;;;5102055;28;20686;-67
2022/10/20 07:59:05;;;;;;;14.93;9.02;;;15.10;99.90;;;;;;5098131;28;20179;-65
2022/10/20 08:01:31;;;;;;;12.40;7.70;;;15.50;99.90;;;;;;5094033;28;20176;-65
2022/10/20 08:03:57;;;;;;;10.73;7.75;;;15.50;99.90;;;;;;5093359;28;20664;-66
2022/10/20 08:06:23;;;;;;;17.10;8.82;;;15.60;99.90;;;;;;5098142;28;20192;-66
2022/10/20 08:08:49;;;;;;;11.48;8.48;;;15.80;99.90;;;;;;5111914;28;20188;-70
2022/10/20 08:11:15;;;;;;;12.38;8.65;;;16.00;99.90;;;;;;5104453;28;20633;-66
2022/10/20 08:13:41;;;;;;;14.63;8.70;;;16.10;99.90;;;;;;5092628;28;20550;-68
2022/10/20 08:16:12;;;;;;;13.82;7.90;;;16.30;99.90;;;;;;5107550;28;20205;-68
2022/10/20 08:18:38;;;;;;;12.27;8.10;;;16.40;99.90;;;;;;5092514;28;20184;-66
2022/10/20 08:21:16;;;;;;;13.68;8.05;;;16.40;99.90;;;;;;5091812;28;20540;-67
2022/10/20 08:23:44;;;;;;;10.93;7.57;;;16.30;99.90;;;;;;5092079;28;20187;-66
2022/10/20 08:26:11;;;;;;;10.38;6.68;;;16.40;99.90;;;;;;5106260;28;20572;-68
2022/10/20 08:28:37;;;;;;;13.20;6.82;;;16.40;99.90;;;;;;5092846;28;20659;-67
2022/10/20 08:31:05;;;;;;;18.35;8.23;;;16.50;99.90;;;;;;5107810;28;20188;-66
2022/10/20 08:33:31;;;;;;;12.27;8.02;;;16.70;99.90;;;;;;5094220;28;20184;-68
2022/10/20 08:36:06;;;;;;;13.48;8.27;;;16.70;99.90;;;;;;5107330;28;20257;-67
2022/10/20 08:38:33;;;;;;;10.77;7.47;;;16.30;99.90;;;;;;5093088;28;20263;-66
2022/10/20 08:41:00;;;;;;;12.80;9.00;;;16.30;99.90;;;;;;5093073;28;20213;-65
2022/10/20 08:43:27;;;;;;;12.88;7.88;;;16.40;99.90;;;;;;5105291;28;20533;-66
2022/10/20 08:45:53;;;;;;;10.68;6.97;;;16.40;99.90;;;;;;5113547;27;20196;-66
2022/10/20 08:48:25;;;;;;;11.98;8.23;;;16.10;99.90;;;;;;5091831;28;20184;-67
2022/10/20 08:50:52;;;;;;;14.55;7.85;;;16.00;99.90;;;;;;5106681;28;20263;-67
2022/10/20 08:53:20;;;;;;;12.18;7.22;;;16.10;99.90;;;;;;5099969;28;20188;-66
2022/10/20 08:55:46;;;;;;;11.88;7.85;;;16.10;99.90;;;;;;5112012;28;20199;-68
2022/10/20 08:58:20;;;;;;;11.73;7.65;;;15.90;99.90;;;;;;5105080;28;20679;-67
2022/10/20 09:00:47;;;;;;;11.15;7.80;;;15.80;99.90;;;;;;5098506;28;20198;-66
2022/10/20 09:03:20;;;;;;;13.20;8.10;;;15.80;99.90;;;;;;5094070;28;20231;-66
2022/10/20 09:05:52;;;;;;;13.50;8.30;;;16.00;99.90;;;;;;5091148;28;20212;-67
2022/10/20 09:08:20;;;;;;;13.68;8.90;;;16.00;99.90;;;;;;5097437;28;20637;-66
2022/10/20 09:10:50;;;;;;;13.88;9.60;;;15.90;99.90;;;;;;5098217;28;20617;-65
2022/10/20 09:13:23;;;;;;;16.65;9.30;;;15.70;99.90;;;;;;5111328;28;20187;-67
2022/10/20 09:15:57;;;;;;;12.60;9.23;;;15.70;99.90;;;;;;5113427;28;20732;-68
2022/10/20 09:18:23;;;;;;;13.68;10.40;;;15.70;99.90;;;;;;5096759;28;20188;-66
2022/10/20 09:20:59;;;;;;;15.60;9.77;;;15.70;99.90;;;;;;5097136;28;20239;-66
2022/10/20 09:23:41;;;;;;;14.02;9.27;;;15.70;99.90;;;;;;5112912;28;20578;-68
2022/10/20 09:26:17;;;;;;;17.27;9.70;;;15.50;99.90;;;;;;5099695;28;20199;-66
2022/10/20 09:28:48;;;;;;;13.48;9.48;;;15.50;99.90;;;;;;5096976;28;20176;-66
2022/10/20 09:31:22;;;;;;;14.63;10.13;;;15.60;99.90;;;;;;5107240;28;20199;-67
2022/10/20 09:33:48;;;;;;;15.18;9.55;;;15.70;99.90;;;;;;5105706;28;20565;-66
2022/10/20 09:36:16;;;;;;;15.45;9.68;;;15.70;99.90;;;;;;5126298;27;20207;-67
2022/10/20 09:38:45;;;;;;;16.77;9.82;;;15.60;99.90;;;;;;5096581;28;20185;-66
2022/10/20 09:41:23;;;;;;;11.93;9.55;;;15.60;99.90;;;;;;5096447;28;20705;-67
2022/10/20 09:43:59;;;;;;;15.48;10.68;;;15.60;99.90;;;;;;5096270;28;20530;-66
2022/10/20 09:46:29;;;;;;;17.75;9.80;;;15.60;99.90;;;;;;5096244;28;20241;-68
2022/10/20 09:48:55;;;;;;;15.30;10.07;;;15.50;99.90;;;;;;5101339;28;20182;-67
2022/10/20 09:51:26;;;;;;;15.52;10.52;;;15.60;99.90;;;;;;5103808;28;20279;-66
2022/10/20 09:54:05;;;;;;;15.48;9.35;;;15.50;99.90;;;;;;5099520;27;20271;-67
2022/10/20 09:56:36;;;;;;;15.65;10.48;;;15.40;99.90;;;;;;5104822;28;20698;-66
2022/10/20 09:59:06;;;;;;;16.58;10.10;;;15.50;99.90;;;;;;5096790;28;20176;-65
2022/10/20 10:01:32;;;;;;;15.82;10.43;;;15.50;99.90;;;;;;5096333;28;20173;-66
2022/10/20 10:04:01;;;;;;;18.10;10.40;;;15.60;99.90;;;;;;5118231;27;20184;-67
2022/10/20 10:06:39;;;;;;;17.40;10.93;;;15.60;99.90;;;;;;5095394;28;20189;-69
2022/10/20 10:09:30;;;;;;;19.75;10.88;;;15.80;99.90;;;;;;5109641;27;20218;-67
2022/10/20 10:12:13;;;;;;;14.88;9.88;;;15.90;99.90;;;;;;5094269;28;20188;-65
2022/10/20 10:14:53;;;;;;;18.45;11.63;;;16.00;99.90;;;;;;5095627;28;20186;-66
2022/10/20 10:17:40;;;;;;;15.60;10.43;;;16.20;99.90;;;;;;5124092;27;20629;-68
2022/10/20 10:20:37;;;;;;;15.50;10.52;;;16.30;99.90;;;;;;5095821;28;20211;-68
2022/10/20 10:23:24;;;;;;;16.73;9.88;;;16.50;99.90;;;;;;5095349;28;20703;-69
2022/10/20 10:25:51;;;;;;;20.50;10.70;;;16.90;99.90;;;;;;5095239;28;20196;-67
2022/10/20 10:28:33;;;;;;;18.33;11.27;;;17.10;99.90;;;;;;5095839;28;20184;-66
2022/10/20 10:31:09;;;;;;;16.77;10.27;;;17.30;99.90;;;;;;5109232;28;20178;-67
2022/10/20 10:33:35;;;;;;;16.17;10.00;;;17.50;99.90;;;;;;5102765;28;20184;-68
2022/10/20 10:36:05;;;;;;;14.52;9.57;;;17.60;99.90;;;;;;5098080;28;20220;-68
2022/10/20 10:38:31;;;;;;;16.17;10.63;;;17.50;99.90;;;;;;5095508;28;20208;-67
2022/10/20 10:41:07;;;;;;;17.10;8.98;;;17.60;99.90;;;;;;5093880;28;20212;-67
2022/10/20 10:43:39;;;;;;;16.35;10.30;;;17.70;99.90;;;;;;5097916;28;20247;-67
2022/10/20 10:46:13;;;;;;;13.18;9.50;;;17.80;99.90;;;;;;5114716;28;20259;-69
2022/10/20 10:49:07;;;;;;;19.42;10.57;;;17.60;99.90;;;;;;5098517;28;20191;-65
2022/10/20 10:52:08;;;;;;;17.92;9.38;;;17.60;99.90;;;;;;5097999;28;20177;-66
2022/10/20 10:54:40;;;;;;;17.00;10.82;;;17.70;99.90;;;;;;5104352;28;20188;-68
2022/10/20 10:57:31;;;;;;;14.70;10.32;;;17.90;99.90;;;;;;5098426;28;20660;-66
2022/10/20 11:00:06;;;;;;;17.08;10.07;;;18.00;99.90;;;;;;5104085;28;20176;-67
2022/10/20 11:02:50;;;;;;;12.90;10.00;;;18.10;99.90;;;;;;5094867;28;20187;-68
2022/10/20 11:05:51;;;;;;;17.65;9.35;;;18.10;99.90;;;;;;5095164;28;20196;-66
2022/10/20 11:08:32;;;;;;;15.15;9.73;;;18.00;99.90;;;;;;5095330;28;20191;-69
2022/10/20 11:11:03;;;;;;;12.05;8.85;;;17.90;99.90;;;;;;5095311;28;20553;-66
2022/10/20 11:13:57;;;;;;;13.63;8.30;;;17.80;99.90;;;;;;5106537;28;20191;-67
2022/10/20 11:16:27;;;;;;;14.75;9.40;;;17.90;99.90;;;;;;5107295;28;20197;-66
2022/10/20 11:19:21;;;;;;;13.95;8.88;;;17.90;99.90;;;;;;5095166;28;20184;-66
2022/10/20 11:22:12;;;;;;;12.68;7.88;;;18.00;99.90;;;;;;5096296;28;20176;-66
2022/10/20 11:24:47;;;;;;;10.38;9.02;;;18.10;99.90;;;;;;5100203;28;20226;-66
2022/10/20 11:27:17;;;;;;;14.45;8.18;;;18.20;99.90;;;;;;5094935;28;20184;-66
2022/10/20 11:29:45;;;;;;;11.52;8.43;;;18.30;99.90;;;;;;5094985;28;20562;-67
2022/10/20 11:32:29;;;;;;;13.55;9.60;;;18.50;99.90;;;;;;5094500;28;20259;-70
2022/10/20 11:35:25;;;;;;;13.60;8.63;;;18.80;99.90;;;;;;5093784;28;20215;-68
2022/10/20 11:38:25;;;;;;;10.23;7.20;;;19.10;99.90;;;;;;5091861;28;20191;-67
2022/10/20 11:40:58;;;;;;;16.85;7.57;;;19.30;99.90;;;;;;5094831;28;20277;-68
2022/10/20 11:44:08;;;;;;;9.07;6.82;;;19.40;99.90;;;;;;5092441;28;20193;-66
2022/10/20 11:47:07;;;;;;;10.55;6.88;;;19.50;99.90;;;;;;5100673;28;20196;-67
2022/10/20 11:49:33;;;;;;;8.27;7.25;;;19.40;99.90;;;;;;5100076;28;20656;-66
2022/10/20 11:52:05;;;;;;;12.27;7.63;;;19.30;99.90;;;;;;5097524;28;20225;-66
2022/10/20 11:54:59;;;;;;;9.23;7.55;;;19.30;99.90;;;;;;5101633;28;20188;-67
2022/10/20 11:57:28;;;;;;;11.57;5.53;;;19.40;99.90;;;;;;5100678;28;20177;-66
2022/10/20 12:00:15;;;;;;;8.75;5.90;;;19.50;99.90;;;;;;5103826;28;20220;-67
2022/10/20 12:03:28;;;;;;;9.60;5.25;;;19.60;99.90;;;;;;5104775;28;20754;-66
2022/10/20 12:06:25;;;;;;;9.05;5.22;;;19.60;99.90;;;;;;5093574;28;20208;-66
2022/10/20 12:09:00;;;;;;;12.30;4.65;;;20.00;99.90;;;;;;5107941;28;20212;-66
2022/10/20 12:11:45;;;;;;;9.00;4.80;;;20.00;99.90;;;;;;5101997;28;20241;-66
2022/10/20 12:14:14;;;;;;;8.30;4.18;;;20.00;99.90;;;;;;5092819;28;20193;-66
2022/10/20 12:16:52;;;;;;;6.88;4.28;;;20.00;99.90;;;;;;5093854;28;20216;-67
2022/10/20 12:19:26;;;;;;;3.97;3.25;;;20.10;99.90;;;;;;5109064;28;20178;-69
2022/10/20 12:22:00;;;;;;;6.00;4.35;;;20.10;99.90;;;;;;5103313;28;20207;-66
2022/10/20 12:24:40;;;;;;;4.75;4.10;;;20.00;99.90;;;;;;5093071;28;20641;-66
2022/10/20 12:27:09;;;;;;;10.63;4.38;;;20.00;99.90;;;;;;5092121;28;20169;-66
2022/10/20 12:29:34;;;;;;;9.60;4.32;;;20.10;99.90;;;;;;5093469;28;20173;-66
2022/10/20 12:32:25;;;;;;;8.43;4.70;;;20.20;99.90;;;;;;5109070;28;20225;-68
2022/10/20 12:34:52;;;;;;;6.28;4.75;;;20.40;99.90;;;;;;5108829;27;20243;-66
2022/10/20 12:37:27;;;;;;;6.15;3.83;;;20.40;99.90;;;;;;5093230;28;20181;-66
2022/10/20 12:39:55;;;;;;;6.10;4.00;;;20.20;99.90;;;;;;5096981;28;20532;-67
2022/10/20 12:42:22;;;;;;;7.47;4.60;;;20.40;99.90;;;;;;5099748;28;20644;-67
2022/10/20 12:44:49;;;;;;;8.80;4.03;;;20.30;99.90;;;;;;5096424;28;20263;-66
2022/10/20 12:47:23;;;;;;;7.85;3.58;;;20.30;99.90;;;;;;5094721;28;20236;-67
2022/10/20 12:50:27;;;;;;;5.85;3.83;;;20.40;99.90;;;;;;5092920;28;20229;-68